Terminal Aerodrome Forecast
Issued by NWS

Home | Current Version | Previous Version | Text Only | Print | Product List | Glossary Off
Versions: 1 2 3 4 5 6 7 8 9 10 11 12 13 14 15 16 17 18 19 20 21

152
FTUS43 KBIS 190822 AAB
TAFDIK
TAF AMD
KDIK 190822Z 1908/2006 00000KT 1 1/2SM BR SKC
     FM191000 VRB04KT 1/4SM FG BKN003
     FM191400 15005KT 1SM BR SCT003
     FM191600 15007KT P6SM SCT200=

USA.gov is the U.S. government's official web portal to all federal, state and local government web resources and services.